createdAt,value
2022-10-21T00:02:44.080Z,3.05
2022-10-21T00:05:46.948Z,3.17
2022-10-21T00:08:49.789Z,2.90
2022-10-21T00:11:52.631Z,3.20
2022-10-21T00:14:57.406Z,3.05
2022-10-21T00:18:00.853Z,4.03
2022-10-21T00:21:06.819Z,3.03
2022-10-21T00:24:09.624Z,3.10
2022-10-21T00:27:12.453Z,3.00
2022-10-21T00:30:16.647Z,3.33
2022-10-21T00:33:19.453Z,3.08
2022-10-21T00:36:22.301Z,2.67
2022-10-21T00:39:25.129Z,2.75
2022-10-21T00:42:32.605Z,3.17
2022-10-21T00:45:36.802Z,2.65
2022-10-21T00:48:43.325Z,3.15
2022-10-21T00:51:49.054Z,2.97
2022-10-21T00:54:55.209Z,3.05
2022-10-21T00:57:58.263Z,2.72
2022-10-21T01:01:05.966Z,2.80
2022-10-21T01:04:08.816Z,2.88
2022-10-21T01:07:12.702Z,2.55
2022-10-21T01:10:15.678Z,2.95
2022-10-21T01:13:26.527Z,3.15
2022-10-21T01:16:41.163Z,3.38
2022-10-21T01:20:12.670Z,3.13
2022-10-21T01:24:12.205Z,2.50
2022-10-21T01:27:22.707Z,2.85
2022-10-21T01:30:35.362Z,2.17
2022-10-21T01:33:42.038Z,2.42
2022-10-21T01:36:51.629Z,3.38
2022-10-21T01:39:58.266Z,2.70
2022-10-21T01:43:08.685Z,2.60
2022-10-21T01:46:17.533Z,2.47
2022-10-21T01:49:28.198Z,2.67
2022-10-21T01:52:31.309Z,3.05
2022-10-21T01:55:35.525Z,3.10
2022-10-21T01:58:40.334Z,3.20
2022-10-21T02:01:47.196Z,2.42
2022-10-21T02:04:52.584Z,2.50
2022-10-21T02:07:56.013Z,2.65
2022-10-21T02:11:02.245Z,2.28
2022-10-21T02:14:09.594Z,2.53
2022-10-21T02:17:17.451Z,2.38
2022-10-21T02:20:22.020Z,2.40
2022-10-21T02:23:32.016Z,2.67
2022-10-21T02:26:34.916Z,2.30
2022-10-21T02:29:41.387Z,2.53
2022-10-21T02:32:53.296Z,2.90
2022-10-21T02:36:05.792Z,2.63
2022-10-21T02:39:15.435Z,2.72
2022-10-21T02:42:24.189Z,2.70
2022-10-21T02:45:28.067Z,2.50
2022-10-21T02:48:35.510Z,2.20
2022-10-21T02:51:38.314Z,2.60
2022-10-21T02:54:41.132Z,2.70
2022-10-21T02:57:43.968Z,2.80
2022-10-21T03:00:46.803Z,2.60
2022-10-21T03:03:50.979Z,2.08
2022-10-21T03:06:53.774Z,2.80
2022-10-21T03:09:56.525Z,2.40
2022-10-21T03:12:59.355Z,2.72
2022-10-21T03:16:02.177Z,2.67
2022-10-21T03:19:06.304Z,2.58
2022-10-21T03:22:09.062Z,2.58
2022-10-21T03:25:12.368Z,2.50
2022-10-21T03:28:15.449Z,3.33
2022-10-21T03:31:18.290Z,2.53
2022-10-21T03:34:22.483Z,2.40
2022-10-21T03:37:25.435Z,2.47
2022-10-21T03:40:30.521Z,2.80
2022-10-21T03:43:33.276Z,2.28
2022-10-21T03:46:36.073Z,2.25
2022-10-21T03:49:40.236Z,2.30
2022-10-21T03:52:43.014Z,3.00
2022-10-21T03:55:46.060Z,2.53
2022-10-21T03:58:49.010Z,2.30
2022-10-21T04:01:51.815Z,2.65
2022-10-21T04:04:56.019Z,2.42
2022-10-21T04:07:58.918Z,2.30
2022-10-21T04:11:01.891Z,2.75
2022-10-21T04:14:04.883Z,2.53
2022-10-21T04:17:08.133Z,2.53
2022-10-21T04:20:13.165Z,2.28
2022-10-21T04:23:15.937Z,2.05
2022-10-21T04:26:18.742Z,2.95
2022-10-21T04:29:21.736Z,2.20
2022-10-21T04:32:24.523Z,2.78
2022-10-21T04:35:28.675Z,2.80
2022-10-21T04:38:31.453Z,2.30
2022-10-21T04:41:34.230Z,2.63
2022-10-21T04:44:39.538Z,2.55
2022-10-21T04:47:42.371Z,2.45
2022-10-21T04:50:46.542Z,2.40
2022-10-21T04:53:49.317Z,2.70
2022-10-21T04:56:52.239Z,2.63
2022-10-21T04:59:55.187Z,2.72
2022-10-21T05:02:57.956Z,2.58
2022-10-21T05:06:02.242Z,2.47
2022-10-21T05:09:05.063Z,3.40
2022-10-21T05:12:08.070Z,4.00
2022-10-21T05:15:11.546Z,4.35
2022-10-21T05:18:14.569Z,5.57
2022-10-21T05:21:19.109Z,5.72
2022-10-21T05:24:21.936Z,5.75
2022-10-21T05:27:24.791Z,6.47
2022-10-21T05:30:27.639Z,5.65
2022-10-21T05:33:30.525Z,5.95
2022-10-21T05:36:34.715Z,5.57
2022-10-21T05:39:37.609Z,6.00
2022-10-21T05:42:40.681Z,5.35
2022-10-21T05:45:43.825Z,6.03
2022-10-21T05:51:55.896Z,5.30
2022-10-21T05:54:58.680Z,5.40
2022-10-21T05:58:01.506Z,4.72
2022-10-21T06:01:04.892Z,5.40
2022-10-21T06:04:08.228Z,5.63
2022-10-21T06:07:12.765Z,5.15
2022-10-21T06:10:16.634Z,5.50
2022-10-21T06:13:19.405Z,5.03
2022-10-21T06:16:22.233Z,4.95
2022-10-21T06:19:25.052Z,4.75
2022-10-21T06:22:29.322Z,5.00
2022-10-21T06:25:32.211Z,4.63
2022-10-21T06:28:36.637Z,4.57
2022-10-21T06:31:39.470Z,5.00
2022-10-21T06:34:42.234Z,4.55
2022-10-21T06:37:46.540Z,5.25
2022-10-21T06:40:49.687Z,4.75
2022-10-21T06:43:52.470Z,4.47
2022-10-21T06:46:55.323Z,4.95
2022-10-21T06:50:02.869Z,4.63
2022-10-21T06:53:07.260Z,4.95
2022-10-21T06:56:16.494Z,4.75
2022-10-21T06:59:19.504Z,4.38
2022-10-21T07:02:24.103Z,4.50
2022-10-21T07:05:26.905Z,4.30
2022-10-21T07:08:46.516Z,4.60
2022-10-21T07:11:49.695Z,4.10
2022-10-21T07:14:52.533Z,4.68
2022-10-21T07:18:00.851Z,4.15
2022-10-21T07:21:05.527Z,4.43
2022-10-21T07:24:11.481Z,4.25
2022-10-21T07:27:14.319Z,5.10
2022-10-21T07:30:17.313Z,4.38
2022-10-21T07:33:20.105Z,4.35
2022-10-21T07:36:25.274Z,4.35
2022-10-21T07:39:29.440Z,3.97
2022-10-21T07:42:32.359Z,4.28
2022-10-21T07:45:35.701Z,4.28
2022-10-21T07:48:38.673Z,4.85
2022-10-21T07:51:42.238Z,4.15
2022-10-21T07:54:46.435Z,4.80
2022-10-21T07:57:49.212Z,4.38
2022-10-21T08:00:52.111Z,4.10
2022-10-21T08:03:56.129Z,4.20
2022-10-21T08:06:59.312Z,4.25
2022-10-21T08:10:04.811Z,4.15
2022-10-21T08:13:07.761Z,4.50
2022-10-21T08:16:10.512Z,4.70
2022-10-21T08:19:19.845Z,4.10
2022-10-21T08:22:22.720Z,4.20
2022-10-21T08:25:29.999Z,4.03
2022-10-21T08:28:32.859Z,4.15
2022-10-21T08:31:35.704Z,4.20
2022-10-21T08:34:38.508Z,4.30
2022-10-21T08:37:41.336Z,4.20
2022-10-21T08:40:50.046Z,4.18
2022-10-21T08:43:58.970Z,4.20
2022-10-21T08:50:17.843Z,4.60
2022-10-21T08:53:25.599Z,4.20
2022-10-21T08:56:32.044Z,5.00
2022-10-21T08:59:34.832Z,4.85
2022-10-21T09:02:50.098Z,4.15
2022-10-21T09:06:10.367Z,4.47
2022-10-21T09:09:21.934Z,4.20
2022-10-21T09:12:32.400Z,4.55
2022-10-21T09:15:47.473Z,3.90
2022-10-21T09:19:00.926Z,4.68
2022-10-21T09:22:37.196Z,4.15
2022-10-21T09:25:47.852Z,4.28
2022-10-21T09:28:52.331Z,4.38
2022-10-21T09:32:02.529Z,4.13
2022-10-21T09:35:13.291Z,4.55
2022-10-21T09:38:22.333Z,4.55
2022-10-21T09:41:31.367Z,4.20
2022-10-21T09:44:35.610Z,4.25
2022-10-21T09:47:38.431Z,4.60
2022-10-21T09:50:42.107Z,4.22
2022-10-21T09:53:53.923Z,4.38
2022-10-21T09:57:02.832Z,4.78
2022-10-21T10:00:12.678Z,4.30
2022-10-21T10:03:34.752Z,4.90
2022-10-21T10:06:39.199Z,3.92
2022-10-21T10:09:47.224Z,4.30
2022-10-21T10:12:56.986Z,5.60
2022-10-21T10:16:17.547Z,5.95
2022-10-21T10:19:23.080Z,5.47
2022-10-21T10:22:26.886Z,5.90
2022-10-21T10:25:32.993Z,5.90
2022-10-21T10:28:36.103Z,6.03
2022-10-21T10:31:40.480Z,5.53
2022-10-21T10:34:53.380Z,5.25
2022-10-21T10:37:58.461Z,5.10
2022-10-21T10:41:07.088Z,5.55
2022-10-21T10:44:13.660Z,5.65
2022-10-21T10:47:25.266Z,5.13
2022-10-21T10:50:49.111Z,5.30
2022-10-21T10:54:02.587Z,5.07
2022-10-21T10:57:11.637Z,6.35
2022-10-21T11:00:18.801Z,4.55
2022-10-21T11:03:28.177Z,5.07
2022-10-21T11:06:43.447Z,4.97
2022-10-21T11:09:47.805Z,4.88
2022-10-21T11:12:50.818Z,4.60
2022-10-21T11:16:11.204Z,4.93
2022-10-21T11:19:25.805Z,5.28
2022-10-21T11:22:39.500Z,5.10
2022-10-21T11:25:47.429Z,4.72
2022-10-21T11:28:57.869Z,5.15
2022-10-21T11:32:12.626Z,6.47
2022-10-21T11:35:34.446Z,6.20
2022-10-21T11:38:54.426Z,5.80
2022-10-21T11:42:06.476Z,5.60
2022-10-21T11:45:34.902Z,5.03
2022-10-21T11:48:53.262Z,5.60
2022-10-21T11:52:10.428Z,5.53
2022-10-21T11:55:34.179Z,6.28
2022-10-21T11:58:49.636Z,6.57
2022-10-21T12:02:00.567Z,6.60
2022-10-21T12:05:12.643Z,6.25
2022-10-21T12:08:21.785Z,6.57
2022-10-21T12:11:28.956Z,5.95
2022-10-21T12:14:35.954Z,6.50
2022-10-21T12:17:39.194Z,6.38
2022-10-21T12:20:43.375Z,6.38
2022-10-21T12:23:53.021Z,6.57
2022-10-21T12:27:04.080Z,6.10
2022-10-21T12:30:13.993Z,6.20
2022-10-21T12:33:20.913Z,7.13
2022-10-21T12:36:45.232Z,6.60
2022-10-21T12:39:51.735Z,6.38
2022-10-21T12:43:01.137Z,6.07
2022-10-21T12:46:07.050Z,6.45
2022-10-21T12:49:22.541Z,6.53
2022-10-21T12:52:25.510Z,6.60
2022-10-21T12:55:30.408Z,6.95
2022-10-21T12:58:41.294Z,5.97
2022-10-21T13:01:46.530Z,6.40
2022-10-21T13:04:51.908Z,6.20
2022-10-21T13:08:16.465Z,6.05
2022-10-21T13:11:24.741Z,6.72
2022-10-21T13:14:39.780Z,6.43
2022-10-21T13:17:53.989Z,6.70
2022-10-21T13:21:00.572Z,6.75
2022-10-21T13:24:25.160Z,6.30
2022-10-21T13:27:32.467Z,5.70
2022-10-21T13:30:37.611Z,6.10
2022-10-21T13:33:40.661Z,6.35
2022-10-21T13:36:44.286Z,6.43
2022-10-21T13:39:51.888Z,5.55
2022-10-21T13:42:59.656Z,5.88
2022-10-21T13:46:07.023Z,6.65
2022-10-21T13:49:27.612Z,6.32
2022-10-21T13:52:31.718Z,6.10
2022-10-21T13:55:34.774Z,6.28
2022-10-21T13:58:40.238Z,6.45
2022-10-21T14:01:47.094Z,5.95
2022-10-21T14:04:49.924Z,6.45
2022-10-21T14:07:52.910Z,6.75
2022-10-21T14:11:00.007Z,6.43
2022-10-21T14:14:08.295Z,6.28
2022-10-21T14:17:18.122Z,6.30
2022-10-21T14:20:26.068Z,7.10
2022-10-21T14:23:30.443Z,6.70
2022-10-21T14:26:34.331Z,6.28
2022-10-21T14:29:38.798Z,7.18
2022-10-21T14:32:43.963Z,5.75
2022-10-21T14:36:05.357Z,5.03
2022-10-21T14:39:20.809Z,5.57
2022-10-21T14:42:26.305Z,6.63
2022-10-21T14:45:33.015Z,5.65
2022-10-21T14:48:38.485Z,6.25
2022-10-21T14:51:41.453Z,6.20
2022-10-21T14:54:46.743Z,5.78
2022-10-21T14:57:53.152Z,6.15
2022-10-21T15:00:59.168Z,6.30
2022-10-21T15:04:02.710Z,5.45
2022-10-21T15:07:05.624Z,5.93
2022-10-21T15:10:18.847Z,5.85
2022-10-21T15:13:21.799Z,5.82
2022-10-21T15:16:30.469Z,5.95
2022-10-21T15:19:46.179Z,6.07
2022-10-21T15:22:49.716Z,6.30
2022-10-21T15:25:55.327Z,6.07
2022-10-21T15:28:58.423Z,6.22
2022-10-21T15:32:03.647Z,6.40
2022-10-21T15:35:13.657Z,5.63
2022-10-21T15:38:16.552Z,6.10
2022-10-21T15:41:21.395Z,6.85
2022-10-21T15:44:27.597Z,6.15
2022-10-21T15:47:31.928Z,5.97
2022-10-21T15:50:36.630Z,6.70
2022-10-21T15:53:42.329Z,5.90
2022-10-21T15:56:48.901Z,6.60
2022-10-21T15:59:51.672Z,6.63
2022-10-21T16:02:55.837Z,6.72
2022-10-21T16:05:59.114Z,6.80
2022-10-21T16:09:02.007Z,6.05
2022-10-21T16:12:07.227Z,6.32
2022-10-21T16:15:11.005Z,6.03
2022-10-21T16:18:16.218Z,6.75
2022-10-21T16:21:20.631Z,6.30
2022-10-21T16:24:23.407Z,6.85
2022-10-21T16:27:43.341Z,7.28
2022-10-21T16:30:49.381Z,7.22
2022-10-21T16:33:53.801Z,7.15
2022-10-21T16:36:57.086Z,7.43
2022-10-21T16:39:59.927Z,7.55
2022-10-21T16:43:02.742Z,7.32
2022-10-21T16:46:06.038Z,7.82
2022-10-21T16:49:14.392Z,7.88
2022-10-21T16:52:17.666Z,7.95
2022-10-21T16:55:20.581Z,8.23
2022-10-21T16:58:23.434Z,7.78
2022-10-21T17:01:26.691Z,8.80
2022-10-21T17:04:30.904Z,8.55
2022-10-21T17:07:34.111Z,8.98
2022-10-21T17:10:38.118Z,8.90
2022-10-21T17:13:41.867Z,9.95
2022-10-21T17:16:45.440Z,10.73
2022-10-21T17:19:50.086Z,10.05
2022-10-21T17:22:52.885Z,17.67
2022-10-21T17:25:55.709Z,16.88
2022-10-21T17:28:58.861Z,17.92
2022-10-21T17:32:01.689Z,15.85
2022-10-21T17:35:06.691Z,14.65
2022-10-21T17:38:09.603Z,14.20
2022-10-21T17:41:14.160Z,13.32
2022-10-21T17:44:17.912Z,13.85
2022-10-21T17:47:20.853Z,14.18
2022-10-21T17:50:26.203Z,14.55
2022-10-21T17:53:29.674Z,14.30
2022-10-21T17:56:32.483Z,14.27
2022-10-21T17:59:35.349Z,14.55
2022-10-21T18:02:38.732Z,14.30
2022-10-21T18:05:43.213Z,14.60
2022-10-21T18:08:46.232Z,13.50
2022-10-21T18:11:49.049Z,14.43
2022-10-21T18:14:52.344Z,14.30
2022-10-21T18:17:55.188Z,14.10
2022-10-21T18:21:02.913Z,14.13
2022-10-21T18:24:09.916Z,14.40
2022-10-21T18:27:15.133Z,14.05
2022-10-21T18:30:18.197Z,13.27
2022-10-21T18:33:21.005Z,14.43
2022-10-21T18:36:26.105Z,14.32
2022-10-21T18:39:28.945Z,14.57
2022-10-21T18:42:31.741Z,13.73
2022-10-21T18:45:35.098Z,14.07
2022-10-21T18:48:37.935Z,14.95
2022-10-21T18:51:42.521Z,13.88
2022-10-21T18:54:45.365Z,15.02
2022-10-21T18:57:48.737Z,14.95
2022-10-21T19:00:51.568Z,14.20
2022-10-21T19:03:56.069Z,15.60
2022-10-21T19:07:00.684Z,15.57
2022-10-21T19:10:03.654Z,15.20
2022-10-21T19:13:06.461Z,16.02
2022-10-21T19:16:09.620Z,15.18
2022-10-21T19:19:13.342Z,14.65
2022-10-21T19:22:18.429Z,15.45
2022-10-21T19:25:21.432Z,14.32
2022-10-21T19:28:24.269Z,13.90
2022-10-21T19:31:27.192Z,16.92
2022-10-21T19:34:30.051Z,16.20
2022-10-21T19:37:34.699Z,18.27
2022-10-21T19:40:37.626Z,17.73
2022-10-21T19:43:40.521Z,18.85
2022-10-21T19:46:44.610Z,18.25
2022-10-21T19:49:47.478Z,19.08
2022-10-21T19:52:51.719Z,18.50
2022-10-21T19:55:54.917Z,17.33
2022-10-21T19:58:57.820Z,17.25
2022-10-21T20:02:00.679Z,17.55
2022-10-21T20:05:03.641Z,21.30
2022-10-21T20:08:08.011Z,20.55
2022-10-21T20:11:13.607Z,19.25
2022-10-21T20:14:16.745Z,19.40
2022-10-21T20:17:19.650Z,20.40
2022-10-21T20:20:22.717Z,20.85
2022-10-21T20:23:27.841Z,20.60
2022-10-21T20:26:30.750Z,17.20
2022-10-21T20:29:33.641Z,18.88
2022-10-21T20:32:36.598Z,19.40
2022-10-21T20:35:43.107Z,19.33
2022-10-21T20:38:47.612Z,22.48
2022-10-21T20:41:50.598Z,17.00
2022-10-21T20:44:53.558Z,18.45
2022-10-21T20:47:56.436Z,17.52
2022-10-21T20:51:03.161Z,16.90
2022-10-21T20:54:10.236Z,16.85
2022-10-21T20:57:13.129Z,14.43
2022-10-21T21:00:16.165Z,16.27
2022-10-21T21:03:19.201Z,15.60
2022-10-21T21:06:21.979Z,15.95
2022-10-21T21:09:57.509Z,15.43
2022-10-21T21:12:48.904Z,14.80
2022-10-21T21:15:51.708Z,14.45
2022-10-21T21:18:56.327Z,16.50
2022-10-21T21:21:59.263Z,17.27
2022-10-21T21:25:04.234Z,16.80
2022-10-21T21:28:07.150Z,17.73
2022-10-21T21:31:11.591Z,18.20
2022-10-21T21:34:14.730Z,18.80
2022-10-21T21:37:17.592Z,17.77
2022-10-21T21:40:21.742Z,15.20
2022-10-21T21:43:24.525Z,15.98
2022-10-21T21:46:28.225Z,15.32
2022-10-21T21:49:31.093Z,15.60
2022-10-21T21:52:33.955Z,16.60
2022-10-21T21:55:38.348Z,15.35
2022-10-21T21:58:41.309Z,14.93
2022-10-21T22:01:44.248Z,14.85
2022-10-21T22:04:47.216Z,14.73
2022-10-21T22:07:50.091Z,14.40
2022-10-21T22:10:54.325Z,14.50
2022-10-21T22:13:57.655Z,13.95
2022-10-21T22:17:00.441Z,13.43
2022-10-21T22:20:03.813Z,13.80
2022-10-21T22:23:06.803Z,13.88
2022-10-21T22:26:12.469Z,14.10
2022-10-21T22:29:15.325Z,13.52
2022-10-21T22:32:18.482Z,13.35
2022-10-21T22:35:21.328Z,13.15
2022-10-21T22:38:24.405Z,13.63
2022-10-21T22:41:28.736Z,13.52
2022-10-21T22:44:31.634Z,13.88
2022-10-21T22:47:34.427Z,13.27
2022-10-21T22:50:37.328Z,13.63
2022-10-21T22:53:40.212Z,12.90
2022-10-21T22:56:44.393Z,13.15
2022-10-21T22:59:52.037Z,12.77
2022-10-21T23:02:55.827Z,12.57
2022-10-21T23:05:58.597Z,13.00
2022-10-21T23:09:02.695Z,12.77
2022-10-21T23:12:07.653Z,12.95
2022-10-21T23:15:11.602Z,12.32
2022-10-21T23:18:14.722Z,12.80
2022-10-21T23:21:17.517Z,13.05
2022-10-21T23:24:20.368Z,12.43
2022-10-21T23:27:24.543Z,12.82
2022-10-21T23:30:27.421Z,12.07
2022-10-21T23:33:30.217Z,12.27
2022-10-21T23:36:33.394Z,12.85
2022-10-21T23:39:36.337Z,12.90
2022-10-21T23:42:42.794Z,10.85
2022-10-21T23:45:45.919Z,12.18
2022-10-21T23:48:49.366Z,11.48
2022-10-21T23:51:52.337Z,12.35
2022-10-21T23:54:55.112Z,12.00
2022-10-21T23:58:00.908Z,11.40
